Airfield :
LOGIN :

Register | Disclaimer

   EN    FR    IT 

 










Legend :    VFR   Marginal VFR   IFR   Intensive IFR   Very Intensive IFR
Visi :
Ceiling :
>= 8 km
>= 3000ft
5 to 8 km
1000 to 3000 ft
1500m to 5 km
500 to 1000 ft
800 to 1500m
200 to 500 ft
< 800m
< 200 ft
Symbols :   Thunderstorms  Fog  Heavy snow  Heavy precipitations  Wind > 20 kt
SIGMETs :     Misc.  Thunderstorms  Icing  Turbulence  Mountain Waves  Volcanic Ashes






- Airport Elevation : 137 ft


LIPS - Istrana AFB Treviso

CURRENT METAR :
  • 280455Z 05009KT 6000 -RA OVC025 11/10 Q1014 RMK OVC VIS MIN 6000 WIND THR26 02011KT WIND THR08 05009KT WHT

EXPIRED METARs :
  • 280355Z 05009KT 6000 -RA OVC025 11/10 Q1013 RMK OVC VIS MIN 6000 WIND THR26 01010KT WIND THR08 05012KT WHT
  • 280255Z 05009KT 9999 -RA OVC025 11/10 Q1013
  • 280155Z 03010KT 9999 OVC030 11/10 Q1013 RMK OVC VIS MIN 9999 WIND THR26 36012KT WIND THR08 03012KT BLU
  • 280055Z 04010KT 7000 -RA OVC025 11/10 Q1013 RMK OVC VIS MIN 7000 WIND THR26 01010KT WIND THR08 04012KT WHT

TAF TAF LIPS
Valid from the 28 at 03:00 until the 28 at 12:00 UTC


280200Z 2803/2812 05010KT 7000 RA BKN020 OVC030
BECMG 2810/2812 9999 NSW SCT025 BKN060



MET'MAP, your aeronautical weather chart ! - Copyright ORBIFLY December 2007 - Disclaimer

ORBIFLY MET'MAP TEAM :

Programming & Development : Alexandra Zaïnal
Original concept : Baudouin d'Aumeries
Technical & hardware support : Manuel Goepfert
Assistance : Marc-Olivier Méhu




SOURCES & CREDITS :

   NOAA